sensor_id;sensor_type;location;lat;lon;timestamp;temperature;humidity
20463;DHT22;10390;53.566;9.980;2022-09-29T00:00:07;22.30;1.00
20463;DHT22;10390;53.566;9.980;2022-09-29T00:02:33;22.30;1.00
20463;DHT22;10390;53.566;9.980;2022-09-29T00:04:59;22.40;1.00
20463;DHT22;10390;53.566;9.980;2022-09-29T00:07:24;22.30;1.00
20463;DHT22;10390;53.566;9.980;2022-09-29T00:09:50;22.30;1.00
20463;DHT22;10390;53.566;9.980;2022-09-29T00:12:15;22.30;1.00
20463;DHT22;10390;53.566;9.980;2022-09-29T00:14:41;22.30;1.00
20463;DHT22;10390;53.566;9.980;2022-09-29T00:17:06;22.40;1.00
20463;DHT22;10390;53.566;9.980;2022-09-29T00:19:32;22.40;1.00
20463;DHT22;10390;53.566;9.980;2022-09-29T00:21:58;22.40;1.00
20463;DHT22;10390;53.566;9.980;2022-09-29T00:24:23;22.40;1.00
20463;DHT22;10390;53.566;9.980;2022-09-29T00:26:50;22.30;1.00
20463;DHT22;10390;53.566;9.980;2022-09-29T00:29:16;22.30;1.00
20463;DHT22;10390;53.566;9.980;2022-09-29T00:31:41;22.40;1.00
20463;DHT22;10390;53.566;9.980;2022-09-29T00:34:07;22.40;1.00
20463;DHT22;10390;53.566;9.980;2022-09-29T00:36:33;22.30;1.00
20463;DHT22;10390;53.566;9.980;2022-09-29T00:38:59;22.30;1.00
20463;DHT22;10390;53.566;9.980;2022-09-29T00:41:31;22.40;1.00
20463;DHT22;10390;53.566;9.980;2022-09-29T00:44:03;22.40;1.00
20463;DHT22;10390;53.566;9.980;2022-09-29T00:46:31;22.40;1.00
20463;DHT22;10390;53.566;9.980;2022-09-29T00:49:09;22.40;1.00
20463;DHT22;10390;53.566;9.980;2022-09-29T00:51:36;22.30;1.00
20463;DHT22;10390;53.566;9.980;2022-09-29T00:54:04;22.40;1.00
20463;DHT22;10390;53.566;9.980;2022-09-29T00:56:30;22.40;1.00
20463;DHT22;10390;53.566;9.980;2022-09-29T00:59:00;22.40;1.00
20463;DHT22;10390;53.566;9.980;2022-09-29T01:01:30;22.30;1.00
20463;DHT22;10390;53.566;9.980;2022-09-29T01:03:59;22.40;1.00
20463;DHT22;10390;53.566;9.980;2022-09-29T01:06:38;22.30;1.00
20463;DHT22;10390;53.566;9.980;2022-09-29T01:09:09;22.40;1.00
20463;DHT22;10390;53.566;9.980;2022-09-29T01:11:36;22.30;1.00
20463;DHT22;10390;53.566;9.980;2022-09-29T01:14:04;22.40;1.00
20463;DHT22;10390;53.566;9.980;2022-09-29T01:16:32;22.40;1.00
20463;DHT22;10390;53.566;9.980;2022-09-29T01:19:00;22.40;1.00
20463;DHT22;10390;53.566;9.980;2022-09-29T01:32:59;22.30;1.00
20463;DHT22;10390;53.566;9.980;2022-09-29T01:36:04;22.30;1.00
20463;DHT22;10390;53.566;9.980;2022-09-29T01:38:45;22.30;1.00
20463;DHT22;10390;53.566;9.980;2022-09-29T01:44:28;22.30;1.00
20463;DHT22;10390;53.566;9.980;2022-09-29T01:47:02;22.30;1.00
20463;DHT22;10390;53.566;9.980;2022-09-29T01:49:32;22.30;1.00
20463;DHT22;10390;53.566;9.980;2022-09-29T01:52:07;22.30;1.00
20463;DHT22;10390;53.566;9.980;2022-09-29T01:54:52;22.30;1.00
20463;DHT22;10390;53.566;9.980;2022-09-29T01:57:25;22.30;1.00
20463;DHT22;10390;53.566;9.980;2022-09-29T02:00:12;22.30;1.00
20463;DHT22;10390;53.566;9.980;2022-09-29T02:02:52;22.30;1.00
20463;DHT22;10390;53.566;9.980;2022-09-29T02:07:57;22.30;1.00
20463;DHT22;10390;53.566;9.980;2022-09-29T02:10:33;22.30;1.00
20463;DHT22;10390;53.566;9.980;2022-09-29T02:13:02;22.30;1.00
20463;DHT22;10390;53.566;9.980;2022-09-29T02:15:32;22.30;1.00
20463;DHT22;10390;53.566;9.980;2022-09-29T02:18:10;22.30;1.00
20463;DHT22;10390;53.566;9.980;2022-09-29T02:20:37;22.30;1.00
20463;DHT22;10390;53.566;9.980;2022-09-29T02:23:03;22.40;1.00
20463;DHT22;10390;53.566;9.980;2022-09-29T02:25:29;22.30;1.00
20463;DHT22;10390;53.566;9.980;2022-09-29T02:27:59;22.30;1.00
20463;DHT22;10390;53.566;9.980;2022-09-29T02:30:25;22.30;1.00
20463;DHT22;10390;53.566;9.980;2022-09-29T02:32:51;22.30;1.00
20463;DHT22;10390;53.566;9.980;2022-09-29T02:35:17;22.30;1.00
20463;DHT22;10390;53.566;9.980;2022-09-29T02:40:26;22.30;1.00
20463;DHT22;10390;53.566;9.980;2022-09-29T02:43:00;22.40;1.00
20463;DHT22;10390;53.566;9.980;2022-09-29T02:45:45;22.30;1.00
20463;DHT22;10390;53.566;9.980;2022-09-29T02:51:23;22.30;1.00
20463;DHT22;10390;53.566;9.980;2022-09-29T02:57:15;22.30;1.00
20463;DHT22;10390;53.566;9.980;2022-09-29T03:00:01;22.30;1.00
20463;DHT22;10390;53.566;9.980;2022-09-29T03:02:32;22.30;1.00
20463;DHT22;10390;53.566;9.980;2022-09-29T03:04:58;22.30;1.00
20463;DHT22;10390;53.566;9.980;2022-09-29T03:07:24;22.30;1.00
20463;DHT22;10390;53.566;9.980;2022-09-29T03:09:50;22.30;1.00
20463;DHT22;10390;53.566;9.980;2022-09-29T03:12:15;22.30;1.00
20463;DHT22;10390;53.566;9.980;2022-09-29T03:14:42;22.30;1.00
20463;DHT22;10390;53.566;9.980;2022-09-29T03:17:08;22.30;1.00
20463;DHT22;10390;53.566;9.980;2022-09-29T03:19:33;22.30;1.00
20463;DHT22;10390;53.566;9.980;2022-09-29T03:21:59;22.30;1.00
20463;DHT22;10390;53.566;9.980;2022-09-29T03:24:24;22.30;1.00
20463;DHT22;10390;53.566;9.980;2022-09-29T03:26:50;22.30;1.00
20463;DHT22;10390;53.566;9.980;2022-09-29T03:29:16;22.30;1.00
20463;DHT22;10390;53.566;9.980;2022-09-29T03:31:42;22.30;1.00
20463;DHT22;10390;53.566;9.980;2022-09-29T03:34:07;22.30;1.00
20463;DHT22;10390;53.566;9.980;2022-09-29T03:36:33;22.30;1.00
20463;DHT22;10390;53.566;9.980;2022-09-29T03:38:58;22.30;1.00
20463;DHT22;10390;53.566;9.980;2022-09-29T03:41:24;22.30;1.00
20463;DHT22;10390;53.566;9.980;2022-09-29T03:43:50;22.30;1.00
20463;DHT22;10390;53.566;9.980;2022-09-29T03:46:15;22.30;1.00
20463;DHT22;10390;53.566;9.980;2022-09-29T03:48:41;22.30;1.00
20463;DHT22;10390;53.566;9.980;2022-09-29T03:51:07;22.30;1.00
20463;DHT22;10390;53.566;9.980;2022-09-29T03:53:33;22.20;1.00
20463;DHT22;10390;53.566;9.980;2022-09-29T03:56:00;22.30;1.00
20463;DHT22;10390;53.566;9.980;2022-09-29T03:58:26;22.30;1.00
20463;DHT22;10390;53.566;9.980;2022-09-29T04:00:52;22.30;1.00
20463;DHT22;10390;53.566;9.980;2022-09-29T04:03:18;22.30;1.00
20463;DHT22;10390;53.566;9.980;2022-09-29T04:05:45;22.30;1.00
20463;DHT22;10390;53.566;9.980;2022-09-29T04:08:11;22.30;1.00
20463;DHT22;10390;53.566;9.980;2022-09-29T04:10:37;22.30;1.00
20463;DHT22;10390;53.566;9.980;2022-09-29T04:13:04;22.30;1.00
20463;DHT22;10390;53.566;9.980;2022-09-29T04:15:30;22.30;1.00
20463;DHT22;10390;53.566;9.980;2022-09-29T04:17:55;22.30;1.00
20463;DHT22;10390;53.566;9.980;2022-09-29T04:20:21;22.30;1.00
20463;DHT22;10390;53.566;9.980;2022-09-29T04:22:47;22.30;1.00
20463;DHT22;10390;53.566;9.980;2022-09-29T04:25:12;22.30;1.00
20463;DHT22;10390;53.566;9.980;2022-09-29T04:27:38;22.20;1.00
20463;DHT22;10390;53.566;9.980;2022-09-29T04:30:04;22.30;1.00
20463;DHT22;10390;53.566;9.980;2022-09-29T04:32:31;22.30;1.00
20463;DHT22;10390;53.566;9.980;2022-09-29T04:34:56;22.30;1.00
20463;DHT22;10390;53.566;9.980;2022-09-29T04:37:22;22.30;1.00
20463;DHT22;10390;53.566;9.980;2022-09-29T04:39:48;22.30;1.00
20463;DHT22;10390;53.566;9.980;2022-09-29T04:42:13;22.20;1.00
20463;DHT22;10390;53.566;9.980;2022-09-29T04:44:39;22.20;1.00
20463;DHT22;10390;53.566;9.980;2022-09-29T04:47:04;22.20;1.00
20463;DHT22;10390;53.566;9.980;2022-09-29T04:49:30;22.30;1.00
20463;DHT22;10390;53.566;9.980;2022-09-29T04:51:56;22.30;1.00
20463;DHT22;10390;53.566;9.980;2022-09-29T04:54:21;22.20;1.00
20463;DHT22;10390;53.566;9.980;2022-09-29T04:56:48;22.20;1.00
20463;DHT22;10390;53.566;9.980;2022-09-29T04:59:14;22.20;1.00
20463;DHT22;10390;53.566;9.980;2022-09-29T05:01:39;22.30;1.00
20463;DHT22;10390;53.566;9.980;2022-09-29T05:04:07;22.20;1.00
20463;DHT22;10390;53.566;9.980;2022-09-29T05:06:34;22.30;1.00
20463;DHT22;10390;53.566;9.980;2022-09-29T05:09:04;22.20;1.00
20463;DHT22;10390;53.566;9.980;2022-09-29T05:11:30;22.20;1.00
20463;DHT22;10390;53.566;9.980;2022-09-29T05:13:55;22.20;1.00
20463;DHT22;10390;53.566;9.980;2022-09-29T05:16:21;22.20;1.00
20463;DHT22;10390;53.566;9.980;2022-09-29T05:18:47;22.20;1.00
20463;DHT22;10390;53.566;9.980;2022-09-29T05:21:13;22.30;1.00
20463;DHT22;10390;53.566;9.980;2022-09-29T05:23:38;22.20;1.00
20463;DHT22;10390;53.566;9.980;2022-09-29T05:26:07;22.20;1.00
20463;DHT22;10390;53.566;9.980;2022-09-29T05:28:36;22.20;1.00
20463;DHT22;10390;53.566;9.980;2022-09-29T05:31:07;22.20;1.00
20463;DHT22;10390;53.566;9.980;2022-09-29T05:33:34;22.20;1.00
20463;DHT22;10390;53.566;9.980;2022-09-29T05:36:00;22.20;1.00
20463;DHT22;10390;53.566;9.980;2022-09-29T05:38:26;22.20;1.00
20463;DHT22;10390;53.566;9.980;2022-09-29T05:40:52;22.20;1.00
20463;DHT22;10390;53.566;9.980;2022-09-29T05:43:21;22.20;1.00
20463;DHT22;10390;53.566;9.980;2022-09-29T05:45:47;22.20;1.00
20463;DHT22;10390;53.566;9.980;2022-09-29T05:48:12;22.20;1.00
20463;DHT22;10390;53.566;9.980;2022-09-29T05:50:38;22.20;1.00
20463;DHT22;10390;53.566;9.980;2022-09-29T05:53:08;22.20;1.00
20463;DHT22;10390;53.566;9.980;2022-09-29T05:55:37;22.20;1.00
20463;DHT22;10390;53.566;9.980;2022-09-29T05:58:04;22.20;1.00
20463;DHT22;10390;53.566;9.980;2022-09-29T06:00:30;22.20;1.00
20463;DHT22;10390;53.566;9.980;2022-09-29T06:03:00;22.20;1.00
20463;DHT22;10390;53.566;9.980;2022-09-29T06:05:26;22.20;1.00
20463;DHT22;10390;53.566;9.980;2022-09-29T06:07:52;22.20;1.00
20463;DHT22;10390;53.566;9.980;2022-09-29T06:10:18;22.20;1.00
20463;DHT22;10390;53.566;9.980;2022-09-29T06:12:44;22.20;1.00
20463;DHT22;10390;53.566;9.980;2022-09-29T06:15:10;22.20;1.00
20463;DHT22;10390;53.566;9.980;2022-09-29T06:17:37;22.10;1.00
20463;DHT22;10390;53.566;9.980;2022-09-29T06:20:04;22.20;1.00
20463;DHT22;10390;53.566;9.980;2022-09-29T06:22:30;22.20;1.00
20463;DHT22;10390;53.566;9.980;2022-09-29T06:24:56;22.20;1.00
20463;DHT22;10390;53.566;9.980;2022-09-29T06:27:21;22.20;1.00
20463;DHT22;10390;53.566;9.980;2022-09-29T06:29:47;22.10;1.00
20463;DHT22;10390;53.566;9.980;2022-09-29T06:32:13;22.20;1.00
20463;DHT22;10390;53.566;9.980;2022-09-29T06:34:39;22.20;1.00
20463;DHT22;10390;53.566;9.980;2022-09-29T06:37:24;22.10;1.00
20463;DHT22;10390;53.566;9.980;2022-09-29T06:40:00;22.10;1.00
20463;DHT22;10390;53.566;9.980;2022-09-29T06:42:26;22.10;1.00
20463;DHT22;10390;53.566;9.980;2022-09-29T06:44:51;22.10;1.00
20463;DHT22;10390;53.566;9.980;2022-09-29T06:47:17;22.10;1.00
20463;DHT22;10390;53.566;9.980;2022-09-29T06:49:43;22.20;1.00
20463;DHT22;10390;53.566;9.980;2022-09-29T06:52:08;22.10;1.00
20463;DHT22;10390;53.566;9.980;2022-09-29T06:54:34;22.10;1.00
20463;DHT22;10390;53.566;9.980;2022-09-29T06:57:00;22.10;1.00
20463;DHT22;10390;53.566;9.980;2022-09-29T06:59:25;22.10;1.00
20463;DHT22;10390;53.566;9.980;2022-09-29T07:01:51;22.10;1.00
20463;DHT22;10390;53.566;9.980;2022-09-29T07:04:20;22.10;1.00
20463;DHT22;10390;53.566;9.980;2022-09-29T07:06:55;22.10;1.00
20463;DHT22;10390;53.566;9.980;2022-09-29T07:09:20;22.10;1.00
20463;DHT22;10390;53.566;9.980;2022-09-29T07:11:49;22.10;1.00
20463;DHT22;10390;53.566;9.980;2022-09-29T07:14:17;22.10;1.00
20463;DHT22;10390;53.566;9.980;2022-09-29T07:16:43;22.10;1.00
20463;DHT22;10390;53.566;9.980;2022-09-29T07:19:10;22.10;1.00
20463;DHT22;10390;53.566;9.980;2022-09-29T07:21:35;22.10;1.00
20463;DHT22;10390;53.566;9.980;2022-09-29T07:24:07;22.00;1.00
20463;DHT22;10390;53.566;9.980;2022-09-29T07:26:33;22.10;1.00
20463;DHT22;10390;53.566;9.980;2022-09-29T07:28:58;22.10;1.00
20463;DHT22;10390;53.566;9.980;2022-09-29T07:31:24;22.10;1.00
20463;DHT22;10390;53.566;9.980;2022-09-29T07:33:51;22.10;1.00
20463;DHT22;10390;53.566;9.980;2022-09-29T07:36:19;22.10;1.00
20463;DHT22;10390;53.566;9.980;2022-09-29T07:38:49;22.10;1.00
20463;DHT22;10390;53.566;9.980;2022-09-29T07:41:18;22.10;1.00
20463;DHT22;10390;53.566;9.980;2022-09-29T07:43:45;22.10;1.00
20463;DHT22;10390;53.566;9.980;2022-09-29T07:46:10;22.10;1.00
20463;DHT22;10390;53.566;9.980;2022-09-29T07:48:40;22.10;1.00
20463;DHT22;10390;53.566;9.980;2022-09-29T07:51:12;22.10;1.00
20463;DHT22;10390;53.566;9.980;2022-09-29T07:53:38;22.10;1.00
20463;DHT22;10390;53.566;9.980;2022-09-29T07:58:41;22.10;1.00
20463;DHT22;10390;53.566;9.980;2022-09-29T08:01:08;22.10;1.00
20463;DHT22;10390;53.566;9.980;2022-09-29T08:03:38;22.10;1.00
20463;DHT22;10390;53.566;9.980;2022-09-29T08:06:06;22.10;1.00
20463;DHT22;10390;53.566;9.980;2022-09-29T08:08:34;22.00;1.00
20463;DHT22;10390;53.566;9.980;2022-09-29T08:11:06;22.10;1.00
20463;DHT22;10390;53.566;9.980;2022-09-29T08:13:32;22.10;1.00
20463;DHT22;10390;53.566;9.980;2022-09-29T08:15:59;22.10;1.00
20463;DHT22;10390;53.566;9.980;2022-09-29T08:18:30;22.10;1.00
20463;DHT22;10390;53.566;9.980;2022-09-29T08:20:56;22.10;1.00
20463;DHT22;10390;53.566;9.980;2022-09-29T08:23:22;22.10;1.00
20463;DHT22;10390;53.566;9.980;2022-09-29T08:25:49;22.00;1.00
20463;DHT22;10390;53.566;9.980;2022-09-29T08:28:15;22.00;1.00
20463;DHT22;10390;53.566;9.980;2022-09-29T08:30:41;22.00;1.00
20463;DHT22;10390;53.566;9.980;2022-09-29T08:33:06;22.00;1.00
20463;DHT22;10390;53.566;9.980;2022-09-29T08:35:39;22.00;1.00
20463;DHT22;10390;53.566;9.980;2022-09-29T08:38:05;22.00;1.00
20463;DHT22;10390;53.566;9.980;2022-09-29T08:40:31;22.00;1.00
20463;DHT22;10390;53.566;9.980;2022-09-29T08:43:08;22.00;1.00
20463;DHT22;10390;53.566;9.980;2022-09-29T08:45:43;22.00;1.00
20463;DHT22;10390;53.566;9.980;2022-09-29T08:48:25;22.00;1.00
20463;DHT22;10390;53.566;9.980;2022-09-29T08:53:19;22.00;1.00
20463;DHT22;10390;53.566;9.980;2022-09-29T08:55:51;22.00;1.00
20463;DHT22;10390;53.566;9.980;2022-09-29T08:58:18;21.90;1.00
20463;DHT22;10390;53.566;9.980;2022-09-29T09:09:41;21.90;1.00
20463;DHT22;10390;53.566;9.980;2022-09-29T09:15:29;21.90;1.00
20463;DHT22;10390;53.566;9.980;2022-09-29T09:18:19;21.90;1.00
20463;DHT22;10390;53.566;9.980;2022-09-29T09:20:58;21.90;1.00
20463;DHT22;10390;53.566;9.980;2022-09-29T09:26:09;21.90;1.00
20463;DHT22;10390;53.566;9.980;2022-09-29T09:28:45;21.80;1.00
20463;DHT22;10390;53.566;9.980;2022-09-29T09:31:20;21.90;1.00
20463;DHT22;10390;53.566;9.980;2022-09-29T09:33:53;21.80;1.00
20463;DHT22;10390;53.566;9.980;2022-09-29T09:36:28;21.90;1.00
20463;DHT22;10390;53.566;9.980;2022-09-29T09:41:37;21.80;1.00
20463;DHT22;10390;53.566;9.980;2022-09-29T09:44:11;21.80;1.00
20463;DHT22;10390;53.566;9.980;2022-09-29T09:47:00;21.80;1.00
20463;DHT22;10390;53.566;9.980;2022-09-29T09:49:43;21.80;1.00
20463;DHT22;10390;53.566;9.980;2022-09-29T09:52:23;21.80;1.00
20463;DHT22;10390;53.566;9.980;2022-09-29T09:54:53;21.80;1.00
20463;DHT22;10390;53.566;9.980;2022-09-29T10:03:02;21.80;1.00
20463;DHT22;10390;53.566;9.980;2022-09-29T10:05:36;21.80;1.00
20463;DHT22;10390;53.566;9.980;2022-09-29T10:08:05;21.80;1.00
20463;DHT22;10390;53.566;9.980;2022-09-29T10:10:32;21.80;1.00
20463;DHT22;10390;53.566;9.980;2022-09-29T10:13:03;21.80;1.00
20463;DHT22;10390;53.566;9.980;2022-09-29T10:20:48;21.80;1.00
20463;DHT22;10390;53.566;9.980;2022-09-29T10:26:12;21.80;1.00
20463;DHT22;10390;53.566;9.980;2022-09-29T10:28:47;21.80;1.00
20463;DHT22;10390;53.566;9.980;2022-09-29T10:31:24;21.80;1.00
20463;DHT22;10390;53.566;9.980;2022-09-29T10:36:23;21.80;1.00
20463;DHT22;10390;53.566;9.980;2022-09-29T10:38:51;21.80;1.00
20463;DHT22;10390;53.566;9.980;2022-09-29T10:41:17;21.80;1.00
20463;DHT22;10390;53.566;9.980;2022-09-29T10:43:46;21.80;1.00
20463;DHT22;10390;53.566;9.980;2022-09-29T10:46:46;21.80;1.00
20463;DHT22;10390;53.566;9.980;2022-09-29T10:51:40;21.80;1.00
20463;DHT22;10390;53.566;9.980;2022-09-29T10:54:08;21.80;1.00
20463;DHT22;10390;53.566;9.980;2022-09-29T10:56:34;21.80;1.00
20463;DHT22;10390;53.566;9.980;2022-09-29T10:59:01;21.80;1.00
20463;DHT22;10390;53.566;9.980;2022-09-29T11:01:30;21.80;1.00
20463;DHT22;10390;53.566;9.980;2022-09-29T11:03:58;21.80;1.00
20463;DHT22;10390;53.566;9.980;2022-09-29T11:06:33;21.80;1.00
20463;DHT22;10390;53.566;9.980;2022-09-29T11:09:03;21.80;1.00
20463;DHT22;10390;53.566;9.980;2022-09-29T11:11:30;21.80;1.00
20463;DHT22;10390;53.566;9.980;2022-09-29T11:13:57;21.80;1.00
20463;DHT22;10390;53.566;9.980;2022-09-29T11:16:33;21.80;1.00
20463;DHT22;10390;53.566;9.980;2022-09-29T11:35:57;21.80;1.00
20463;DHT22;10390;53.566;9.980;2022-09-29T11:38:53;21.80;1.00
20463;DHT22;10390;53.566;9.980;2022-09-29T11:46:52;21.80;1.00
20463;DHT22;10390;53.566;9.980;2022-09-29T12:00:10;21.80;1.00
20463;DHT22;10390;53.566;9.980;2022-09-29T12:08:23;21.80;1.00
20463;DHT22;10390;53.566;9.980;2022-09-29T12:11:06;21.80;1.00
20463;DHT22;10390;53.566;9.980;2022-09-29T12:14:08;21.80;1.00
20463;DHT22;10390;53.566;9.980;2022-09-29T12:16:32;21.80;1.00
20463;DHT22;10390;53.566;9.980;2022-09-29T12:19:10;21.80;1.00
20463;DHT22;10390;53.566;9.980;2022-09-29T12:21:43;21.80;1.00
20463;DHT22;10390;53.566;9.980;2022-09-29T12:24:35;21.90;1.00
20463;DHT22;10390;53.566;9.980;2022-09-29T12:27:06;21.80;1.00
20463;DHT22;10390;53.566;9.980;2022-09-29T12:29:39;21.80;1.00
20463;DHT22;10390;53.566;9.980;2022-09-29T12:35:03;21.80;1.00
20463;DHT22;10390;53.566;9.980;2022-09-29T12:37:40;21.80;1.00
20463;DHT22;10390;53.566;9.980;2022-09-29T12:40:16;21.80;1.00
20463;DHT22;10390;53.566;9.980;2022-09-29T12:43:04;21.80;1.00
20463;DHT22;10390;53.566;9.980;2022-09-29T12:48:34;21.80;1.00
20463;DHT22;10390;53.566;9.980;2022-09-29T12:51:21;21.80;1.00
20463;DHT22;10390;53.566;9.980;2022-09-29T12:56:39;21.80;1.00
20463;DHT22;10390;53.566;9.980;2022-09-29T13:01:53;21.80;1.00
20463;DHT22;10390;53.566;9.980;2022-09-29T13:07:11;21.80;1.00
20463;DHT22;10390;53.566;9.980;2022-09-29T13:09:49;21.80;1.00
20463;DHT22;10390;53.566;9.980;2022-09-29T13:29:23;21.80;1.00
20463;DHT22;10390;53.566;9.980;2022-09-29T13:31:53;21.80;1.00
20463;DHT22;10390;53.566;9.980;2022-09-29T13:34:44;21.80;1.00
20463;DHT22;10390;53.566;9.980;2022-09-29T13:37:14;21.80;1.00
20463;DHT22;10390;53.566;9.980;2022-09-29T13:39:43;21.80;1.00
20463;DHT22;10390;53.566;9.980;2022-09-29T13:42:41;21.80;1.00
20463;DHT22;10390;53.566;9.980;2022-09-29T13:47:59;21.80;1.00
20463;DHT22;10390;53.566;9.980;2022-09-29T13:50:42;21.80;1.00
20463;DHT22;10390;53.566;9.980;2022-09-29T13:55:54;21.80;1.00
20463;DHT22;10390;53.566;9.980;2022-09-29T14:01:00;21.80;1.00
20463;DHT22;10390;53.566;9.980;2022-09-29T14:09:03;21.80;1.00
20463;DHT22;10390;53.566;9.980;2022-09-29T14:11:36;21.80;1.00
20463;DHT22;10390;53.566;9.980;2022-09-29T14:14:08;21.80;1.00
20463;DHT22;10390;53.566;9.980;2022-09-29T14:19:42;21.80;1.00
20463;DHT22;10390;53.566;9.980;2022-09-29T14:27:46;21.80;1.00
20463;DHT22;10390;53.566;9.980;2022-09-29T14:32:57;21.80;1.00
20463;DHT22;10390;53.566;9.980;2022-09-29T14:35:26;21.80;1.00
20463;DHT22;10390;53.566;9.980;2022-09-29T14:49:31;21.70;1.00
20463;DHT22;10390;53.566;9.980;2022-09-29T14:55:11;21.70;1.00
20463;DHT22;10390;53.566;9.980;2022-09-29T14:57:57;21.80;1.00
20463;DHT22;10390;53.566;9.980;2022-09-29T15:00:48;21.70;1.00
20463;DHT22;10390;53.566;9.980;2022-09-29T15:03:23;21.70;1.00
20463;DHT22;10390;53.566;9.980;2022-09-29T15:06:04;21.70;1.00
20463;DHT22;10390;53.566;9.980;2022-09-29T15:08:30;21.70;1.00
20463;DHT22;10390;53.566;9.980;2022-09-29T15:10:56;21.70;1.00
20463;DHT22;10390;53.566;9.980;2022-09-29T15:13:25;21.80;1.00
20463;DHT22;10390;53.566;9.980;2022-09-29T15:26:43;21.70;1.00
20463;DHT22;10390;53.566;9.980;2022-09-29T15:29:14;21.70;1.00
20463;DHT22;10390;53.566;9.980;2022-09-29T15:31:44;21.80;1.00
20463;DHT22;10390;53.566;9.980;2022-09-29T15:34:28;21.80;1.00
20463;DHT22;10390;53.566;9.980;2022-09-29T15:36:55;21.80;1.00
20463;DHT22;10390;53.566;9.980;2022-09-29T15:42:11;21.80;1.00
20463;DHT22;10390;53.566;9.980;2022-09-29T15:44:52;21.80;1.00
20463;DHT22;10390;53.566;9.980;2022-09-29T15:47:39;21.70;1.00
20463;DHT22;10390;53.566;9.980;2022-09-29T15:50:26;21.70;1.00
20463;DHT22;10390;53.566;9.980;2022-09-29T15:52:52;21.80;1.00
20463;DHT22;10390;53.566;9.980;2022-09-29T15:55:21;21.80;1.00
20463;DHT22;10390;53.566;9.980;2022-09-29T15:57:49;21.70;1.00
20463;DHT22;10390;53.566;9.980;2022-09-29T16:03:03;21.80;1.00
20463;DHT22;10390;53.566;9.980;2022-09-29T16:05:32;21.80;1.00
20463;DHT22;10390;53.566;9.980;2022-09-29T16:08:04;21.80;1.00
20463;DHT22;10390;53.566;9.980;2022-09-29T16:14:26;21.80;1.00
20463;DHT22;10390;53.566;9.980;2022-09-29T16:16:59;21.80;1.00
20463;DHT22;10390;53.566;9.980;2022-09-29T16:20:03;21.80;1.00
20463;DHT22;10390;53.566;9.980;2022-09-29T16:26:52;21.80;1.00
20463;DHT22;10390;53.566;9.980;2022-09-29T16:30:04;21.80;1.00
20463;DHT22;10390;53.566;9.980;2022-09-29T16:33:28;21.80;1.00
20463;DHT22;10390;53.566;9.980;2022-09-29T16:36:38;21.80;1.00
20463;DHT22;10390;53.566;9.980;2022-09-29T16:39:32;21.80;1.00
20463;DHT22;10390;53.566;9.980;2022-09-29T16:43:16;21.80;1.00
20463;DHT22;10390;53.566;9.980;2022-09-29T16:46:10;21.70;1.00
20463;DHT22;10390;53.566;9.980;2022-09-29T16:49:54;21.70;1.00
20463;DHT22;10390;53.566;9.980;2022-09-29T16:52:51;21.80;1.00
20463;DHT22;10390;53.566;9.980;2022-09-29T16:55:40;21.80;1.00
20463;DHT22;10390;53.566;9.980;2022-09-29T16:59:08;21.80;1.00
20463;DHT22;10390;53.566;9.980;2022-09-29T17:01:48;21.80;1.00
20463;DHT22;10390;53.566;9.980;2022-09-29T17:04:39;21.80;1.00
20463;DHT22;10390;53.566;9.980;2022-09-29T17:07:43;21.80;1.00
20463;DHT22;10390;53.566;9.980;2022-09-29T17:10:56;21.80;1.00
20463;DHT22;10390;53.566;9.980;2022-09-29T17:13:41;21.80;1.00
20463;DHT22;10390;53.566;9.980;2022-09-29T17:17:21;21.80;1.00
20463;DHT22;10390;53.566;9.980;2022-09-29T17:20:17;21.80;1.00
20463;DHT22;10390;53.566;9.980;2022-09-29T17:23:13;21.70;1.00
20463;DHT22;10390;53.566;9.980;2022-09-29T17:26:30;21.80;1.00
20463;DHT22;10390;53.566;9.980;2022-09-29T17:34:33;21.80;1.00
20463;DHT22;10390;53.566;9.980;2022-09-29T17:37:00;21.80;1.00
20463;DHT22;10390;53.566;9.980;2022-09-29T17:39:26;21.80;1.00
20463;DHT22;10390;53.566;9.980;2022-09-29T17:41:52;21.80;1.00
20463;DHT22;10390;53.566;9.980;2022-09-29T17:44:18;21.80;1.00
20463;DHT22;10390;53.566;9.980;2022-09-29T17:46:44;21.80;1.00
20463;DHT22;10390;53.566;9.980;2022-09-29T17:49:11;21.80;1.00
20463;DHT22;10390;53.566;9.980;2022-09-29T17:51:37;21.80;1.00
20463;DHT22;10390;53.566;9.980;2022-09-29T17:54:03;21.80;1.00
20463;DHT22;10390;53.566;9.980;2022-09-29T17:56:30;21.80;1.00
20463;DHT22;10390;53.566;9.980;2022-09-29T17:59:07;21.80;1.00
20463;DHT22;10390;53.566;9.980;2022-09-29T18:01:35;21.80;1.00
20463;DHT22;10390;53.566;9.980;2022-09-29T18:04:02;21.80;1.00
20463;DHT22;10390;53.566;9.980;2022-09-29T18:06:29;21.80;1.00
20463;DHT22;10390;53.566;9.980;2022-09-29T18:08:56;21.80;1.00
20463;DHT22;10390;53.566;9.980;2022-09-29T18:11:24;21.80;1.00
20463;DHT22;10390;53.566;9.980;2022-09-29T18:13:50;21.80;1.00
20463;DHT22;10390;53.566;9.980;2022-09-29T18:16:20;21.70;1.00
20463;DHT22;10390;53.566;9.980;2022-09-29T18:18:47;21.80;1.00
20463;DHT22;10390;53.566;9.980;2022-09-29T18:21:13;21.80;1.00
20463;DHT22;10390;53.566;9.980;2022-09-29T18:23:40;21.80;1.00
20463;DHT22;10390;53.566;9.980;2022-09-29T18:26:06;21.70;1.00
20463;DHT22;10390;53.566;9.980;2022-09-29T18:28:32;21.80;1.00
20463;DHT22;10390;53.566;9.980;2022-09-29T18:31:27;21.70;1.00
20463;DHT22;10390;53.566;9.980;2022-09-29T18:33:53;21.70;1.00
20463;DHT22;10390;53.566;9.980;2022-09-29T18:36:20;21.70;1.00
20463;DHT22;10390;53.566;9.980;2022-09-29T18:38:46;21.70;1.00
20463;DHT22;10390;53.566;9.980;2022-09-29T18:41:14;21.70;1.00
20463;DHT22;10390;53.566;9.980;2022-09-29T18:43:40;21.70;1.00
20463;DHT22;10390;53.566;9.980;2022-09-29T18:46:06;21.70;1.00
20463;DHT22;10390;53.566;9.980;2022-09-29T18:48:32;21.70;1.00
20463;DHT22;10390;53.566;9.980;2022-09-29T18:50:57;21.70;1.00
20463;DHT22;10390;53.566;9.980;2022-09-29T18:53:24;21.70;1.00
20463;DHT22;10390;53.566;9.980;2022-09-29T18:55:54;21.70;1.00
20463;DHT22;10390;53.566;9.980;2022-09-29T18:58:21;21.60;1.00
20463;DHT22;10390;53.566;9.980;2022-09-29T19:00:52;21.70;1.00
20463;DHT22;10390;53.566;9.980;2022-09-29T19:03:20;21.70;1.00
20463;DHT22;10390;53.566;9.980;2022-09-29T19:05:48;21.70;1.00
20463;DHT22;10390;53.566;9.980;2022-09-29T19:08:15;21.70;1.00
20463;DHT22;10390;53.566;9.980;2022-09-29T19:11:02;21.70;1.00
20463;DHT22;10390;53.566;9.980;2022-09-29T19:13:29;21.70;1.00
20463;DHT22;10390;53.566;9.980;2022-09-29T19:15:56;21.70;1.00
20463;DHT22;10390;53.566;9.980;2022-09-29T19:18:24;21.70;1.00
20463;DHT22;10390;53.566;9.980;2022-09-29T19:20:52;21.70;1.00
20463;DHT22;10390;53.566;9.980;2022-09-29T19:23:18;21.70;1.00
20463;DHT22;10390;53.566;9.980;2022-09-29T19:25:46;21.70;1.00
20463;DHT22;10390;53.566;9.980;2022-09-29T19:28:12;21.70;1.00
20463;DHT22;10390;53.566;9.980;2022-09-29T19:30:39;21.60;1.00
20463;DHT22;10390;53.566;9.980;2022-09-29T19:33:07;21.70;1.00
20463;DHT22;10390;53.566;9.980;2022-09-29T19:35:34;21.70;1.00
20463;DHT22;10390;53.566;9.980;2022-09-29T19:38:00;21.60;1.00
20463;DHT22;10390;53.566;9.980;2022-09-29T19:40:33;21.70;1.00